sensor_id;sensor_type;location;lat;lon;timestamp;P1;durP1;ratioP1;P2;durP2;ratioP2
75261;SDS011;63859;51.064;4.580;2023-02-01T00:02:24;24.07;;;8.13;;
75261;SDS011;63859;51.064;4.580;2023-02-01T00:04:49;22.87;;;6.87;;
75261;SDS011;63859;51.064;4.580;2023-02-01T00:07:15;31.20;;;8.13;;
75261;SDS011;63859;51.064;4.580;2023-02-01T00:09:40;25.13;;;8.60;;
75261;SDS011;63859;51.064;4.580;2023-02-01T00:12:06;38.87;;;7.97;;
75261;SDS011;63859;51.064;4.580;2023-02-01T00:14:32;20.43;;;7.60;;
75261;SDS011;63859;51.064;4.580;2023-02-01T00:17:03;32.00;;;7.20;;
75261;SDS011;63859;51.064;4.580;2023-02-01T00:19:30;21.27;;;6.97;;
75261;SDS011;63859;51.064;4.580;2023-02-01T00:21:55;26.83;;;7.60;;
75261;SDS011;63859;51.064;4.580;2023-02-01T00:24:21;26.90;;;7.10;;
75261;SDS011;63859;51.064;4.580;2023-02-01T00:26:47;18.33;;;7.30;;
75261;SDS011;63859;51.064;4.580;2023-02-01T00:29:17;26.33;;;7.57;;
75261;SDS011;63859;51.064;4.580;2023-02-01T00:31:44;27.40;;;7.07;;
75261;SDS011;63859;51.064;4.580;2023-02-01T00:34:15;31.80;;;9.23;;
75261;SDS011;63859;51.064;4.580;2023-02-01T00:36:41;28.20;;;7.60;;
75261;SDS011;63859;51.064;4.580;2023-02-01T00:39:08;23.53;;;6.27;;
75261;SDS011;63859;51.064;4.580;2023-02-01T00:41:34;26.50;;;6.40;;
75261;SDS011;63859;51.064;4.580;2023-02-01T00:44:00;25.63;;;6.93;;
75261;SDS011;63859;51.064;4.580;2023-02-01T00:46:26;26.60;;;7.17;;
75261;SDS011;63859;51.064;4.580;2023-02-01T00:48:52;21.93;;;6.57;;
75261;SDS011;63859;51.064;4.580;2023-02-01T00:51:20;30.10;;;6.43;;
75261;SDS011;63859;51.064;4.580;2023-02-01T00:53:47;24.80;;;5.97;;
75261;SDS011;63859;51.064;4.580;2023-02-01T00:56:14;15.10;;;4.73;;
75261;SDS011;63859;51.064;4.580;2023-02-01T00:58:40;26.33;;;6.27;;
75261;SDS011;63859;51.064;4.580;2023-02-01T01:03:38;27.67;;;5.77;;
75261;SDS011;63859;51.064;4.580;2023-02-01T01:06:06;20.50;;;5.77;;
75261;SDS011;63859;51.064;4.580;2023-02-01T01:08:34;20.10;;;5.73;;
75261;SDS011;63859;51.064;4.580;2023-02-01T01:11:04;20.93;;;6.00;;
75261;SDS011;63859;51.064;4.580;2023-02-01T01:13:34;22.30;;;5.77;;
75261;SDS011;63859;51.064;4.580;2023-02-01T01:16:01;20.57;;;5.33;;
75261;SDS011;63859;51.064;4.580;2023-02-01T01:18:27;24.70;;;5.97;;
75261;SDS011;63859;51.064;4.580;2023-02-01T01:20:54;22.40;;;5.47;;
75261;SDS011;63859;51.064;4.580;2023-02-01T01:23:20;23.07;;;5.07;;
75261;SDS011;63859;51.064;4.580;2023-02-01T01:25:45;22.27;;;5.47;;
75261;SDS011;63859;51.064;4.580;2023-02-01T01:28:11;31.23;;;6.50;;
75261;SDS011;63859;51.064;4.580;2023-02-01T01:30:36;25.57;;;5.00;;
75261;SDS011;63859;51.064;4.580;2023-02-01T01:33:02;18.90;;;4.70;;
75261;SDS011;63859;51.064;4.580;2023-02-01T01:35:28;22.57;;;5.30;;
75261;SDS011;63859;51.064;4.580;2023-02-01T01:37:55;25.67;;;5.47;;
75261;SDS011;63859;51.064;4.580;2023-02-01T01:40:21;26.63;;;5.17;;
75261;SDS011;63859;51.064;4.580;2023-02-01T01:42:47;23.67;;;5.60;;
75261;SDS011;63859;51.064;4.580;2023-02-01T01:45:27;23.33;;;5.27;;
75261;SDS011;63859;51.064;4.580;2023-02-01T01:47:55;21.07;;;5.20;;
75261;SDS011;63859;51.064;4.580;2023-02-01T01:50:30;17.33;;;4.97;;
75261;SDS011;63859;51.064;4.580;2023-02-01T01:53:00;21.50;;;4.43;;
75261;SDS011;63859;51.064;4.580;2023-02-01T01:55:29;19.23;;;4.07;;
75261;SDS011;63859;51.064;4.580;2023-02-01T01:58:01;13.40;;;4.57;;
75261;SDS011;63859;51.064;4.580;2023-02-01T02:00:30;28.97;;;5.57;;
75261;SDS011;63859;51.064;4.580;2023-02-01T02:03:30;21.83;;;5.03;;
75261;SDS011;63859;51.064;4.580;2023-02-01T02:06:03;20.10;;;4.20;;
75261;SDS011;63859;51.064;4.580;2023-02-01T02:08:38;22.87;;;5.23;;
75261;SDS011;63859;51.064;4.580;2023-02-01T02:11:04;20.97;;;4.10;;
75261;SDS011;63859;51.064;4.580;2023-02-01T02:13:33;21.07;;;4.60;;
75261;SDS011;63859;51.064;4.580;2023-02-01T02:18:38;25.03;;;4.93;;
75261;SDS011;63859;51.064;4.580;2023-02-01T02:21:11;19.70;;;4.40;;
75261;SDS011;63859;51.064;4.580;2023-02-01T02:24:06;21.17;;;4.40;;
75261;SDS011;63859;51.064;4.580;2023-02-01T02:29:50;25.73;;;4.73;;
75261;SDS011;63859;51.064;4.580;2023-02-01T02:40:32;20.73;;;4.13;;
75261;SDS011;63859;51.064;4.580;2023-02-01T02:43:23;19.10;;;4.27;;
75261;SDS011;63859;51.064;4.580;2023-02-01T02:46:25;18.53;;;4.90;;
75261;SDS011;63859;51.064;4.580;2023-02-01T02:49:21;16.80;;;3.83;;
75261;SDS011;63859;51.064;4.580;2023-02-01T02:55:08;17.73;;;4.47;;
75261;SDS011;63859;51.064;4.580;2023-02-01T02:57:38;20.67;;;4.20;;
75261;SDS011;63859;51.064;4.580;2023-02-01T03:00:30;17.83;;;4.03;;
75261;SDS011;63859;51.064;4.580;2023-02-01T03:03:16;20.20;;;4.47;;
75261;SDS011;63859;51.064;4.580;2023-02-01T03:06:00;23.93;;;5.10;;
75261;SDS011;63859;51.064;4.580;2023-02-01T03:08:27;23.50;;;4.63;;
75261;SDS011;63859;51.064;4.580;2023-02-01T03:21:41;19.77;;;4.27;;
75261;SDS011;63859;51.064;4.580;2023-02-01T03:27:10;29.47;;;5.40;;
75261;SDS011;63859;51.064;4.580;2023-02-01T03:32:30;28.60;;;4.27;;
75261;SDS011;63859;51.064;4.580;2023-02-01T03:35:17;22.07;;;4.00;;
75261;SDS011;63859;51.064;4.580;2023-02-01T03:37:46;21.37;;;3.33;;
75261;SDS011;63859;51.064;4.580;2023-02-01T03:40:12;19.47;;;4.23;;
75261;SDS011;63859;51.064;4.580;2023-02-01T03:42:45;22.40;;;4.17;;
75261;SDS011;63859;51.064;4.580;2023-02-01T03:45:34;24.00;;;4.90;;
75261;SDS011;63859;51.064;4.580;2023-02-01T03:48:07;24.87;;;4.77;;
75261;SDS011;63859;51.064;4.580;2023-02-01T03:50:35;24.87;;;4.00;;
75261;SDS011;63859;51.064;4.580;2023-02-01T03:53:09;23.00;;;4.83;;
75261;SDS011;63859;51.064;4.580;2023-02-01T03:55:39;24.30;;;5.40;;
75261;SDS011;63859;51.064;4.580;2023-02-01T03:58:13;25.80;;;5.00;;
75261;SDS011;63859;51.064;4.580;2023-02-01T04:00:42;27.87;;;4.10;;
75261;SDS011;63859;51.064;4.580;2023-02-01T04:03:19;26.87;;;4.87;;
75261;SDS011;63859;51.064;4.580;2023-02-01T04:05:46;28.67;;;5.03;;
75261;SDS011;63859;51.064;4.580;2023-02-01T04:08:13;21.67;;;4.37;;
75261;SDS011;63859;51.064;4.580;2023-02-01T04:10:38;18.30;;;4.47;;
75261;SDS011;63859;51.064;4.580;2023-02-01T04:13:04;27.63;;;5.30;;
75261;SDS011;63859;51.064;4.580;2023-02-01T04:15:30;20.47;;;4.03;;
75261;SDS011;63859;51.064;4.580;2023-02-01T04:17:55;20.03;;;4.47;;
75261;SDS011;63859;51.064;4.580;2023-02-01T04:20:21;18.20;;;4.57;;
75261;SDS011;63859;51.064;4.580;2023-02-01T04:22:46;23.53;;;4.40;;
75261;SDS011;63859;51.064;4.580;2023-02-01T04:25:12;25.07;;;4.60;;
75261;SDS011;63859;51.064;4.580;2023-02-01T04:27:38;27.97;;;4.03;;
75261;SDS011;63859;51.064;4.580;2023-02-01T04:30:04;17.17;;;4.13;;
75261;SDS011;63859;51.064;4.580;2023-02-01T04:32:30;27.30;;;4.83;;
75261;SDS011;63859;51.064;4.580;2023-02-01T04:34:55;23.43;;;4.30;;
75261;SDS011;63859;51.064;4.580;2023-02-01T04:37:21;27.23;;;4.87;;
75261;SDS011;63859;51.064;4.580;2023-02-01T04:39:47;24.20;;;4.53;;
75261;SDS011;63859;51.064;4.580;2023-02-01T04:42:12;24.73;;;4.47;;
75261;SDS011;63859;51.064;4.580;2023-02-01T04:44:38;22.83;;;4.43;;
75261;SDS011;63859;51.064;4.580;2023-02-01T04:47:06;21.20;;;4.60;;
75261;SDS011;63859;51.064;4.580;2023-02-01T04:49:32;25.87;;;4.93;;
75261;SDS011;63859;51.064;4.580;2023-02-01T04:51:58;17.97;;;4.57;;
75261;SDS011;63859;51.064;4.580;2023-02-01T04:54:24;22.60;;;4.47;;
75261;SDS011;63859;51.064;4.580;2023-02-01T04:56:50;25.03;;;4.40;;
75261;SDS011;63859;51.064;4.580;2023-02-01T04:59:16;30.20;;;4.70;;
75261;SDS011;63859;51.064;4.580;2023-02-01T05:01:41;26.70;;;5.00;;
75261;SDS011;63859;51.064;4.580;2023-02-01T05:04:07;24.23;;;4.87;;
75261;SDS011;63859;51.064;4.580;2023-02-01T05:06:32;24.77;;;4.77;;
75261;SDS011;63859;51.064;4.580;2023-02-01T05:08:58;26.43;;;4.37;;
75261;SDS011;63859;51.064;4.580;2023-02-01T05:11:24;22.93;;;4.00;;
75261;SDS011;63859;51.064;4.580;2023-02-01T05:14:08;28.27;;;4.83;;
75261;SDS011;63859;51.064;4.580;2023-02-01T05:16:34;28.30;;;5.07;;
75261;SDS011;63859;51.064;4.580;2023-02-01T05:19:00;23.20;;;4.20;;
75261;SDS011;63859;51.064;4.580;2023-02-01T05:21:26;25.50;;;4.57;;
75261;SDS011;63859;51.064;4.580;2023-02-01T05:23:51;26.40;;;4.23;;
75261;SDS011;63859;51.064;4.580;2023-02-01T05:26:38;23.30;;;4.17;;
75261;SDS011;63859;51.064;4.580;2023-02-01T05:29:07;25.47;;;4.33;;
75261;SDS011;63859;51.064;4.580;2023-02-01T05:31:34;22.77;;;5.03;;
75261;SDS011;63859;51.064;4.580;2023-02-01T05:34:00;21.87;;;4.53;;
75261;SDS011;63859;51.064;4.580;2023-02-01T05:36:26;25.20;;;4.63;;
75261;SDS011;63859;51.064;4.580;2023-02-01T05:38:51;28.70;;;4.67;;
75261;SDS011;63859;51.064;4.580;2023-02-01T05:41:17;15.43;;;3.63;;
75261;SDS011;63859;51.064;4.580;2023-02-01T05:43:43;25.73;;;4.47;;
75261;SDS011;63859;51.064;4.580;2023-02-01T05:46:08;32.47;;;5.20;;
75261;SDS011;63859;51.064;4.580;2023-02-01T05:48:40;19.73;;;3.97;;
75261;SDS011;63859;51.064;4.580;2023-02-01T05:51:07;24.87;;;4.40;;
75261;SDS011;63859;51.064;4.580;2023-02-01T05:53:34;26.93;;;4.93;;
75261;SDS011;63859;51.064;4.580;2023-02-01T05:55:59;29.80;;;4.73;;
75261;SDS011;63859;51.064;4.580;2023-02-01T05:58:25;27.20;;;6.13;;
75261;SDS011;63859;51.064;4.580;2023-02-01T06:00:51;23.70;;;5.00;;
75261;SDS011;63859;51.064;4.580;2023-02-01T06:03:17;26.47;;;5.03;;
75261;SDS011;63859;51.064;4.580;2023-02-01T06:05:43;27.17;;;4.20;;
75261;SDS011;63859;51.064;4.580;2023-02-01T06:08:09;26.47;;;4.77;;
75261;SDS011;63859;51.064;4.580;2023-02-01T06:10:35;26.30;;;5.60;;
75261;SDS011;63859;51.064;4.580;2023-02-01T06:13:01;28.00;;;4.50;;
75261;SDS011;63859;51.064;4.580;2023-02-01T06:15:28;28.77;;;5.50;;
75261;SDS011;63859;51.064;4.580;2023-02-01T06:17:54;25.60;;;4.37;;
75261;SDS011;63859;51.064;4.580;2023-02-01T06:20:19;27.40;;;4.80;;
75261;SDS011;63859;51.064;4.580;2023-02-01T06:22:45;25.37;;;5.03;;
75261;SDS011;63859;51.064;4.580;2023-02-01T06:25:11;28.57;;;4.83;;
75261;SDS011;63859;51.064;4.580;2023-02-01T06:27:37;27.47;;;4.77;;
75261;SDS011;63859;51.064;4.580;2023-02-01T06:30:03;22.97;;;4.23;;
75261;SDS011;63859;51.064;4.580;2023-02-01T06:32:29;22.27;;;5.20;;
75261;SDS011;63859;51.064;4.580;2023-02-01T06:34:55;27.97;;;5.47;;
75261;SDS011;63859;51.064;4.580;2023-02-01T06:37:21;23.20;;;4.57;;
75261;SDS011;63859;51.064;4.580;2023-02-01T06:39:49;20.87;;;4.80;;
75261;SDS011;63859;51.064;4.580;2023-02-01T06:42:15;24.33;;;4.93;;
75261;SDS011;63859;51.064;4.580;2023-02-01T06:44:41;26.33;;;4.93;;
75261;SDS011;63859;51.064;4.580;2023-02-01T06:47:07;25.17;;;5.40;;
75261;SDS011;63859;51.064;4.580;2023-02-01T06:49:33;31.77;;;4.70;;
75261;SDS011;63859;51.064;4.580;2023-02-01T06:51:58;26.60;;;5.10;;
75261;SDS011;63859;51.064;4.580;2023-02-01T06:54:27;20.93;;;4.47;;
75261;SDS011;63859;51.064;4.580;2023-02-01T06:56:53;22.03;;;4.87;;
75261;SDS011;63859;51.064;4.580;2023-02-01T06:59:19;32.30;;;5.10;;
75261;SDS011;63859;51.064;4.580;2023-02-01T07:01:44;28.33;;;4.73;;
75261;SDS011;63859;51.064;4.580;2023-02-01T07:04:10;23.53;;;5.47;;
75261;SDS011;63859;51.064;4.580;2023-02-01T07:06:37;28.43;;;5.27;;
75261;SDS011;63859;51.064;4.580;2023-02-01T07:09:03;28.27;;;4.53;;
75261;SDS011;63859;51.064;4.580;2023-02-01T07:11:28;21.03;;;4.90;;
75261;SDS011;63859;51.064;4.580;2023-02-01T07:13:55;30.03;;;4.70;;
75261;SDS011;63859;51.064;4.580;2023-02-01T07:16:21;26.00;;;6.20;;
75261;SDS011;63859;51.064;4.580;2023-02-01T07:18:47;29.27;;;5.30;;
75261;SDS011;63859;51.064;4.580;2023-02-01T07:21:14;27.90;;;5.37;;
75261;SDS011;63859;51.064;4.580;2023-02-01T07:23:40;22.87;;;4.73;;
75261;SDS011;63859;51.064;4.580;2023-02-01T07:26:06;29.03;;;5.87;;
75261;SDS011;63859;51.064;4.580;2023-02-01T07:28:35;26.20;;;4.67;;
75261;SDS011;63859;51.064;4.580;2023-02-01T07:31:04;25.67;;;4.63;;
75261;SDS011;63859;51.064;4.580;2023-02-01T07:33:31;26.30;;;4.60;;
75261;SDS011;63859;51.064;4.580;2023-02-01T07:35:59;21.40;;;3.80;;
75261;SDS011;63859;51.064;4.580;2023-02-01T07:38:27;20.00;;;3.77;;
75261;SDS011;63859;51.064;4.580;2023-02-01T07:40:56;17.53;;;3.40;;
75261;SDS011;63859;51.064;4.580;2023-02-01T07:43:26;27.47;;;4.87;;
75261;SDS011;63859;51.064;4.580;2023-02-01T07:45:52;21.43;;;4.17;;
75261;SDS011;63859;51.064;4.580;2023-02-01T07:48:19;18.73;;;3.97;;
75261;SDS011;63859;51.064;4.580;2023-02-01T07:50:45;25.17;;;5.23;;
75261;SDS011;63859;51.064;4.580;2023-02-01T07:53:11;21.77;;;4.57;;
75261;SDS011;63859;51.064;4.580;2023-02-01T07:55:37;30.93;;;5.97;;
75261;SDS011;63859;51.064;4.580;2023-02-01T07:58:03;21.67;;;4.87;;
75261;SDS011;63859;51.064;4.580;2023-02-01T08:00:29;25.73;;;4.97;;
75261;SDS011;63859;51.064;4.580;2023-02-01T08:03:13;14.87;;;3.90;;
75261;SDS011;63859;51.064;4.580;2023-02-01T08:05:39;29.00;;;5.23;;
75261;SDS011;63859;51.064;4.580;2023-02-01T08:08:04;32.43;;;5.17;;
75261;SDS011;63859;51.064;4.580;2023-02-01T08:10:31;24.90;;;4.40;;
75261;SDS011;63859;51.064;4.580;2023-02-01T08:13:00;20.13;;;4.70;;
75261;SDS011;63859;51.064;4.580;2023-02-01T08:15:26;31.00;;;6.07;;
75261;SDS011;63859;51.064;4.580;2023-02-01T08:17:53;22.23;;;4.17;;
75261;SDS011;63859;51.064;4.580;2023-02-01T08:20:22;21.10;;;5.10;;
75261;SDS011;63859;51.064;4.580;2023-02-01T08:22:49;19.67;;;4.47;;
75261;SDS011;63859;51.064;4.580;2023-02-01T08:25:15;19.13;;;4.40;;
75261;SDS011;63859;51.064;4.580;2023-02-01T08:27:41;24.70;;;3.90;;
75261;SDS011;63859;51.064;4.580;2023-02-01T08:30:07;33.40;;;6.00;;
75261;SDS011;63859;51.064;4.580;2023-02-01T08:32:34;22.80;;;4.77;;
75261;SDS011;63859;51.064;4.580;2023-02-01T08:35:00;21.07;;;5.37;;
75261;SDS011;63859;51.064;4.580;2023-02-01T08:37:26;24.50;;;4.90;;
75261;SDS011;63859;51.064;4.580;2023-02-01T08:39:51;22.83;;;4.47;;
75261;SDS011;63859;51.064;4.580;2023-02-01T08:42:17;26.33;;;5.07;;
75261;SDS011;63859;51.064;4.580;2023-02-01T08:45:02;32.53;;;5.17;;
75261;SDS011;63859;51.064;4.580;2023-02-01T08:47:29;20.70;;;3.97;;
75261;SDS011;63859;51.064;4.580;2023-02-01T08:49:55;28.53;;;4.50;;
75261;SDS011;63859;51.064;4.580;2023-02-01T08:52:21;26.57;;;4.20;;
75261;SDS011;63859;51.064;4.580;2023-02-01T08:54:46;27.93;;;4.87;;
75261;SDS011;63859;51.064;4.580;2023-02-01T08:57:12;20.50;;;4.77;;
75261;SDS011;63859;51.064;4.580;2023-02-01T08:59:38;30.70;;;4.80;;
75261;SDS011;63859;51.064;4.580;2023-02-01T09:02:03;23.97;;;5.00;;
75261;SDS011;63859;51.064;4.580;2023-02-01T09:04:29;24.47;;;5.40;;
75261;SDS011;63859;51.064;4.580;2023-02-01T09:06:55;25.10;;;4.87;;
75261;SDS011;63859;51.064;4.580;2023-02-01T09:09:23;22.70;;;5.77;;
75261;SDS011;63859;51.064;4.580;2023-02-01T09:11:49;25.03;;;5.27;;
75261;SDS011;63859;51.064;4.580;2023-02-01T09:14:15;28.60;;;5.70;;
75261;SDS011;63859;51.064;4.580;2023-02-01T09:16:41;28.67;;;5.00;;
75261;SDS011;63859;51.064;4.580;2023-02-01T09:19:07;28.23;;;4.60;;
75261;SDS011;63859;51.064;4.580;2023-02-01T09:21:33;24.27;;;5.23;;
75261;SDS011;63859;51.064;4.580;2023-02-01T09:23:59;29.07;;;5.63;;
75261;SDS011;63859;51.064;4.580;2023-02-01T09:26:25;20.70;;;4.77;;
75261;SDS011;63859;51.064;4.580;2023-02-01T09:28:51;29.70;;;4.50;;
75261;SDS011;63859;51.064;4.580;2023-02-01T09:31:16;29.03;;;5.37;;
75261;SDS011;63859;51.064;4.580;2023-02-01T09:33:42;28.07;;;5.17;;
75261;SDS011;63859;51.064;4.580;2023-02-01T09:36:08;30.20;;;5.47;;
75261;SDS011;63859;51.064;4.580;2023-02-01T09:38:34;22.27;;;5.10;;
75261;SDS011;63859;51.064;4.580;2023-02-01T09:40:59;20.80;;;4.43;;
75261;SDS011;63859;51.064;4.580;2023-02-01T09:48:41;23.37;;;5.27;;
75261;SDS011;63859;51.064;4.580;2023-02-01T09:51:13;23.27;;;4.40;;
75261;SDS011;63859;51.064;4.580;2023-02-01T09:53:50;16.13;;;4.23;;
75261;SDS011;63859;51.064;4.580;2023-02-01T09:56:40;26.47;;;4.40;;
75261;SDS011;63859;51.064;4.580;2023-02-01T09:59:46;22.57;;;4.70;;
75261;SDS011;63859;51.064;4.580;2023-02-01T10:02:19;32.63;;;5.87;;
75261;SDS011;63859;51.064;4.580;2023-02-01T10:04:47;26.60;;;4.50;;
75261;SDS011;63859;51.064;4.580;2023-02-01T10:10:07;22.33;;;5.07;;
75261;SDS011;63859;51.064;4.580;2023-02-01T10:28:42;26.93;;;4.40;;
75261;SDS011;63859;51.064;4.580;2023-02-01T10:31:11;19.77;;;3.50;;
75261;SDS011;63859;51.064;4.580;2023-02-01T10:33:51;15.17;;;3.60;;
75261;SDS011;63859;51.064;4.580;2023-02-01T10:36:25;12.17;;;3.00;;
75261;SDS011;63859;51.064;4.580;2023-02-01T10:38:52;14.37;;;3.43;;
75261;SDS011;63859;51.064;4.580;2023-02-01T10:41:19;16.80;;;3.73;;
75261;SDS011;63859;51.064;4.580;2023-02-01T10:43:54;15.07;;;2.93;;
75261;SDS011;63859;51.064;4.580;2023-02-01T10:46:22;15.83;;;3.40;;
75261;SDS011;63859;51.064;4.580;2023-02-01T10:48:49;20.07;;;3.50;;
75261;SDS011;63859;51.064;4.580;2023-02-01T10:51:28;24.83;;;3.80;;
75261;SDS011;63859;51.064;4.580;2023-02-01T10:54:13;22.73;;;3.30;;
75261;SDS011;63859;51.064;4.580;2023-02-01T10:56:43;15.53;;;3.43;;
75261;SDS011;63859;51.064;4.580;2023-02-01T10:59:16;16.60;;;3.87;;
75261;SDS011;63859;51.064;4.580;2023-02-01T11:01:44;9.00;;;2.63;;
75261;SDS011;63859;51.064;4.580;2023-02-01T11:04:20;17.23;;;3.33;;
75261;SDS011;63859;51.064;4.580;2023-02-01T11:06:52;14.67;;;2.50;;
75261;SDS011;63859;51.064;4.580;2023-02-01T11:09:29;21.63;;;3.13;;
75261;SDS011;63859;51.064;4.580;2023-02-01T11:11:59;16.23;;;3.77;;
75261;SDS011;63859;51.064;4.580;2023-02-01T11:16:53;14.90;;;3.77;;
75261;SDS011;63859;51.064;4.580;2023-02-01T11:19:19;21.70;;;3.57;;
75261;SDS011;63859;51.064;4.580;2023-02-01T11:21:48;16.83;;;4.43;;
75261;SDS011;63859;51.064;4.580;2023-02-01T11:24:26;22.07;;;3.30;;
75261;SDS011;63859;51.064;4.580;2023-02-01T11:26:56;14.23;;;3.03;;
75261;SDS011;63859;51.064;4.580;2023-02-01T11:29:24;20.80;;;3.17;;
75261;SDS011;63859;51.064;4.580;2023-02-01T11:31:55;14.43;;;2.43;;
75261;SDS011;63859;51.064;4.580;2023-02-01T11:34:24;17.17;;;2.70;;
75261;SDS011;63859;51.064;4.580;2023-02-01T11:37:03;16.73;;;2.53;;
75261;SDS011;63859;51.064;4.580;2023-02-01T11:39:38;22.67;;;3.60;;
75261;SDS011;63859;51.064;4.580;2023-02-01T11:42:14;23.80;;;4.03;;
75261;SDS011;63859;51.064;4.580;2023-02-01T11:44:42;15.27;;;3.93;;
75261;SDS011;63859;51.064;4.580;2023-02-01T11:47:25;20.17;;;3.40;;
75261;SDS011;63859;51.064;4.580;2023-02-01T11:49:54;25.63;;;4.10;;
75261;SDS011;63859;51.064;4.580;2023-02-01T12:06:55;14.27;;;3.67;;
75261;SDS011;63859;51.064;4.580;2023-02-01T12:12:37;16.13;;;3.03;;
75261;SDS011;63859;51.064;4.580;2023-02-01T12:15:20;23.40;;;3.37;;
75261;SDS011;63859;51.064;4.580;2023-02-01T12:43:07;15.53;;;3.30;;
75261;SDS011;63859;51.064;4.580;2023-02-01T12:45:41;6.73;;;2.37;;
75261;SDS011;63859;51.064;4.580;2023-02-01T12:48:21;12.73;;;3.17;;
75261;SDS011;63859;51.064;4.580;2023-02-01T12:50:51;16.87;;;3.23;;
75261;SDS011;63859;51.064;4.580;2023-02-01T12:53:33;26.20;;;4.80;;
75261;SDS011;63859;51.064;4.580;2023-02-01T12:56:04;16.93;;;2.90;;
75261;SDS011;63859;51.064;4.580;2023-02-01T13:01:20;15.40;;;3.27;;
75261;SDS011;63859;51.064;4.580;2023-02-01T13:06:50;24.67;;;3.37;;
75261;SDS011;63859;51.064;4.580;2023-02-01T13:09:45;27.97;;;3.37;;
75261;SDS011;63859;51.064;4.580;2023-02-01T13:12:21;23.63;;;2.97;;
75261;SDS011;63859;51.064;4.580;2023-02-01T13:17:41;14.67;;;2.27;;
75261;SDS011;63859;51.064;4.580;2023-02-01T13:20:30;16.93;;;2.50;;
75261;SDS011;63859;51.064;4.580;2023-02-01T13:23:00;14.20;;;2.63;;
75261;SDS011;63859;51.064;4.580;2023-02-01T13:25:45;15.50;;;3.10;;
75261;SDS011;63859;51.064;4.580;2023-02-01T13:28:38;19.47;;;3.10;;
75261;SDS011;63859;51.064;4.580;2023-02-01T13:34:03;10.97;;;2.40;;
75261;SDS011;63859;51.064;4.580;2023-02-01T13:42:20;16.27;;;2.63;;
75261;SDS011;63859;51.064;4.580;2023-02-01T13:44:59;19.53;;;2.80;;
75261;SDS011;63859;51.064;4.580;2023-02-01T13:47:32;17.03;;;2.70;;
75261;SDS011;63859;51.064;4.580;2023-02-01T13:53:31;17.17;;;3.13;;
75261;SDS011;63859;51.064;4.580;2023-02-01T14:03:46;9.67;;;2.43;;
75261;SDS011;63859;51.064;4.580;2023-02-01T14:06:18;14.17;;;2.73;;
75261;SDS011;63859;51.064;4.580;2023-02-01T14:11:58;20.20;;;3.67;;
75261;SDS011;63859;51.064;4.580;2023-02-01T14:15:18;15.97;;;3.63;;
75261;SDS011;63859;51.064;4.580;2023-02-01T14:17:43;15.27;;;3.10;;
75261;SDS011;63859;51.064;4.580;2023-02-01T14:23:12;15.03;;;2.80;;
75261;SDS011;63859;51.064;4.580;2023-02-01T14:25:43;11.30;;;3.07;;
75261;SDS011;63859;51.064;4.580;2023-02-01T14:28:11;16.10;;;2.67;;
75261;SDS011;63859;51.064;4.580;2023-02-01T14:30:50;14.13;;;2.80;;
75261;SDS011;63859;51.064;4.580;2023-02-01T14:33:20;23.37;;;3.90;;
75261;SDS011;63859;51.064;4.580;2023-02-01T14:36:05;12.53;;;2.87;;
75261;SDS011;63859;51.064;4.580;2023-02-01T14:38:37;18.57;;;2.93;;
75261;SDS011;63859;51.064;4.580;2023-02-01T14:41:12;20.10;;;4.03;;
75261;SDS011;63859;51.064;4.580;2023-02-01T14:43:51;24.40;;;4.07;;
75261;SDS011;63859;51.064;4.580;2023-02-01T14:49:33;23.33;;;3.77;;
75261;SDS011;63859;51.064;4.580;2023-02-01T14:52:13;16.47;;;4.47;;
75261;SDS011;63859;51.064;4.580;2023-02-01T14:54:43;20.20;;;3.60;;
75261;SDS011;63859;51.064;4.580;2023-02-01T14:57:15;20.00;;;3.03;;
75261;SDS011;63859;51.064;4.580;2023-02-01T14:59:44;12.07;;;2.80;;
75261;SDS011;63859;51.064;4.580;2023-02-01T15:02:18;20.30;;;3.53;;
75261;SDS011;63859;51.064;4.580;2023-02-01T15:04:51;20.30;;;3.50;;
75261;SDS011;63859;51.064;4.580;2023-02-01T15:07:20;14.40;;;3.43;;
75261;SDS011;63859;51.064;4.580;2023-02-01T15:09:48;20.73;;;3.43;;
75261;SDS011;63859;51.064;4.580;2023-02-01T15:12:16;17.33;;;3.03;;
75261;SDS011;63859;51.064;4.580;2023-02-01T15:15:02;17.93;;;3.17;;
75261;SDS011;63859;51.064;4.580;2023-02-01T15:17:37;21.00;;;3.47;;
75261;SDS011;63859;51.064;4.580;2023-02-01T15:20:11;20.87;;;3.40;;
75261;SDS011;63859;51.064;4.580;2023-02-01T15:22:55;19.30;;;3.03;;
75261;SDS011;63859;51.064;4.580;2023-02-01T15:25:25;16.80;;;3.47;;
75261;SDS011;63859;51.064;4.580;2023-02-01T15:27:54;17.53;;;2.80;;
75261;SDS011;63859;51.064;4.580;2023-02-01T15:30:23;23.20;;;4.27;;
75261;SDS011;63859;51.064;4.580;2023-02-01T15:33:03;11.73;;;2.97;;
75261;SDS011;63859;51.064;4.580;2023-02-01T15:35:34;23.20;;;3.70;;
75261;SDS011;63859;51.064;4.580;2023-02-01T15:41:08;17.53;;;2.90;;
75261;SDS011;63859;51.064;4.580;2023-02-01T15:48:56;15.63;;;3.40;;
75261;SDS011;63859;51.064;4.580;2023-02-01T15:51:23;14.03;;;3.17;;
75261;SDS011;63859;51.064;4.580;2023-02-01T15:56:48;16.67;;;3.57;;
75261;SDS011;63859;51.064;4.580;2023-02-01T15:59:21;27.97;;;4.33;;
75261;SDS011;63859;51.064;4.580;2023-02-01T16:01:53;16.40;;;2.90;;
75261;SDS011;63859;51.064;4.580;2023-02-01T16:06:48;17.60;;;3.03;;
75261;SDS011;63859;51.064;4.580;2023-02-01T16:09:17;27.93;;;4.37;;
75261;SDS011;63859;51.064;4.580;2023-02-01T16:11:52;18.83;;;4.20;;
75261;SDS011;63859;51.064;4.580;2023-02-01T16:14:23;16.47;;;3.50;;
75261;SDS011;63859;51.064;4.580;2023-02-01T16:16:50;17.77;;;4.20;;
75261;SDS011;63859;51.064;4.580;2023-02-01T16:19:16;23.97;;;3.80;;
75261;SDS011;63859;51.064;4.580;2023-02-01T16:21:42;18.80;;;3.50;;
75261;SDS011;63859;51.064;4.580;2023-02-01T16:24:08;22.10;;;3.80;;
75261;SDS011;63859;51.064;4.580;2023-02-01T16:26:33;18.53;;;3.20;;
75261;SDS011;63859;51.064;4.580;2023-02-01T16:28:59;23.13;;;3.33;;
75261;SDS011;63859;51.064;4.580;2023-02-01T16:31:30;12.63;;;2.97;;
75261;SDS011;63859;51.064;4.580;2023-02-01T16:34:01;15.87;;;3.20;;
75261;SDS011;63859;51.064;4.580;2023-02-01T16:36:27;23.20;;;3.30;;
75261;SDS011;63859;51.064;4.580;2023-02-01T16:38:54;13.90;;;3.33;;
75261;SDS011;63859;51.064;4.580;2023-02-01T16:41:21;31.47;;;4.20;;
75261;SDS011;63859;51.064;4.580;2023-02-01T16:43:52;16.27;;;3.37;;
75261;SDS011;63859;51.064;4.580;2023-02-01T16:46:20;17.47;;;3.00;;
75261;SDS011;63859;51.064;4.580;2023-02-01T16:48:51;22.20;;;4.47;;
75261;SDS011;63859;51.064;4.580;2023-02-01T16:51:30;18.30;;;3.83;;
75261;SDS011;63859;51.064;4.580;2023-02-01T16:53:58;14.47;;;3.53;;
75261;SDS011;63859;51.064;4.580;2023-02-01T16:56:31;20.73;;;4.73;;
75261;SDS011;63859;51.064;4.580;2023-02-01T16:58:57;11.67;;;3.10;;
75261;SDS011;63859;51.064;4.580;2023-02-01T17:01:23;20.17;;;3.50;;
75261;SDS011;63859;51.064;4.580;2023-02-01T17:03:49;20.90;;;3.83;;
75261;SDS011;63859;51.064;4.580;2023-02-01T17:06:16;21.03;;;3.93;;
75261;SDS011;63859;51.064;4.580;2023-02-01T17:08:45;17.33;;;4.07;;
75261;SDS011;63859;51.064;4.580;2023-02-01T17:11:14;16.27;;;3.93;;
75261;SDS011;63859;51.064;4.580;2023-02-01T17:13:41;18.63;;;3.73;;
75261;SDS011;63859;51.064;4.580;2023-02-01T17:19:04;13.60;;;3.67;;
75261;SDS011;63859;51.064;4.580;2023-02-01T17:21:43;26.23;;;3.83;;
75261;SDS011;63859;51.064;4.580;2023-02-01T17:24:14;17.47;;;3.50;;
75261;SDS011;63859;51.064;4.580;2023-02-01T17:26:42;23.87;;;3.80;;
75261;SDS011;63859;51.064;4.580;2023-02-01T17:29:08;20.40;;;3.40;;
75261;SDS011;63859;51.064;4.580;2023-02-01T17:31:36;18.17;;;3.20;;
75261;SDS011;63859;51.064;4.580;2023-02-01T17:34:10;21.17;;;3.13;;